sensor_id;sensor_type;location;lat;lon;timestamp;P1;durP1;ratioP1;P2;durP2;ratioP2
76439;SDS011;65274;44.982;20.060;2023-03-01T00:01:08;77.35;;;29.73;;
76439;SDS011;65274;44.982;20.060;2023-03-01T00:03:34;77.18;;;30.63;;
76439;SDS011;65274;44.982;20.060;2023-03-01T00:06:01;82.15;;;28.00;;
76439;SDS011;65274;44.982;20.060;2023-03-01T00:08:27;78.40;;;30.63;;
76439;SDS011;65274;44.982;20.060;2023-03-01T00:11:00;88.45;;;36.28;;
76439;SDS011;65274;44.982;20.060;2023-03-01T00:13:26;75.13;;;32.13;;
76439;SDS011;65274;44.982;20.060;2023-03-01T00:15:52;74.35;;;29.02;;
76439;SDS011;65274;44.982;20.060;2023-03-01T00:18:18;80.07;;;30.98;;
76439;SDS011;65274;44.982;20.060;2023-03-01T00:20:51;73.25;;;30.08;;
76439;SDS011;65274;44.982;20.060;2023-03-01T00:23:17;84.70;;;29.65;;
76439;SDS011;65274;44.982;20.060;2023-03-01T00:25:43;73.40;;;30.25;;
76439;SDS011;65274;44.982;20.060;2023-03-01T00:28:09;73.07;;;30.67;;
76439;SDS011;65274;44.982;20.060;2023-03-01T00:30:35;75.93;;;31.02;;
76439;SDS011;65274;44.982;20.060;2023-03-01T00:33:01;85.25;;;30.83;;
76439;SDS011;65274;44.982;20.060;2023-03-01T00:35:27;87.65;;;32.65;;
76439;SDS011;65274;44.982;20.060;2023-03-01T00:37:53;86.90;;;33.45;;
76439;SDS011;65274;44.982;20.060;2023-03-01T00:40:23;85.47;;;32.72;;
76439;SDS011;65274;44.982;20.060;2023-03-01T00:42:49;87.15;;;31.92;;
76439;SDS011;65274;44.982;20.060;2023-03-01T00:45:15;83.47;;;32.20;;
76439;SDS011;65274;44.982;20.060;2023-03-01T00:47:47;82.80;;;30.05;;
76439;SDS011;65274;44.982;20.060;2023-03-01T00:50:14;69.88;;;30.42;;
76439;SDS011;65274;44.982;20.060;2023-03-01T00:52:40;68.57;;;28.13;;
76439;SDS011;65274;44.982;20.060;2023-03-01T00:55:06;78.72;;;31.23;;
76439;SDS011;65274;44.982;20.060;2023-03-01T00:57:32;81.13;;;30.70;;
76439;SDS011;65274;44.982;20.060;2023-03-01T00:59:58;81.57;;;33.55;;
76439;SDS011;65274;44.982;20.060;2023-03-01T01:02:25;79.50;;;32.08;;
76439;SDS011;65274;44.982;20.060;2023-03-01T01:04:51;75.50;;;31.00;;
76439;SDS011;65274;44.982;20.060;2023-03-01T01:07:17;76.03;;;32.75;;
76439;SDS011;65274;44.982;20.060;2023-03-01T01:09:45;77.07;;;31.33;;
76439;SDS011;65274;44.982;20.060;2023-03-01T01:12:11;82.78;;;31.20;;
76439;SDS011;65274;44.982;20.060;2023-03-01T01:14:37;81.25;;;33.38;;
76439;SDS011;65274;44.982;20.060;2023-03-01T01:17:03;83.70;;;33.90;;
76439;SDS011;65274;44.982;20.060;2023-03-01T01:19:29;85.80;;;33.30;;
76439;SDS011;65274;44.982;20.060;2023-03-01T01:21:56;81.00;;;32.40;;
76439;SDS011;65274;44.982;20.060;2023-03-01T01:24:22;87.03;;;33.38;;
76439;SDS011;65274;44.982;20.060;2023-03-01T01:26:48;85.30;;;35.28;;
76439;SDS011;65274;44.982;20.060;2023-03-01T01:29:14;94.88;;;36.50;;
76439;SDS011;65274;44.982;20.060;2023-03-01T01:31:40;92.53;;;34.80;;
76439;SDS011;65274;44.982;20.060;2023-03-01T01:34:07;96.68;;;36.38;;
76439;SDS011;65274;44.982;20.060;2023-03-01T01:36:34;94.03;;;35.80;;
76439;SDS011;65274;44.982;20.060;2023-03-01T01:39:00;88.60;;;35.08;;
76439;SDS011;65274;44.982;20.060;2023-03-01T01:41:27;87.22;;;36.60;;
76439;SDS011;65274;44.982;20.060;2023-03-01T01:44:13;94.93;;;35.50;;
76439;SDS011;65274;44.982;20.060;2023-03-01T01:46:57;89.35;;;36.65;;
76439;SDS011;65274;44.982;20.060;2023-03-01T01:49:35;92.05;;;34.65;;
76439;SDS011;65274;44.982;20.060;2023-03-01T01:54:49;91.78;;;37.25;;
76439;SDS011;65274;44.982;20.060;2023-03-01T01:59:42;83.60;;;36.03;;
76439;SDS011;65274;44.982;20.060;2023-03-01T02:02:09;87.78;;;36.65;;
76439;SDS011;65274;44.982;20.060;2023-03-01T02:04:35;92.00;;;35.97;;
76439;SDS011;65274;44.982;20.060;2023-03-01T02:07:03;85.05;;;34.22;;
76439;SDS011;65274;44.982;20.060;2023-03-01T02:11:55;88.22;;;34.03;;
76439;SDS011;65274;44.982;20.060;2023-03-01T02:14:22;99.15;;;38.22;;
76439;SDS011;65274;44.982;20.060;2023-03-01T02:16:48;95.65;;;39.47;;
76439;SDS011;65274;44.982;20.060;2023-03-01T02:19:20;93.72;;;38.78;;
76439;SDS011;65274;44.982;20.060;2023-03-01T02:21:55;96.95;;;37.17;;
76439;SDS011;65274;44.982;20.060;2023-03-01T02:26:51;97.25;;;38.38;;
76439;SDS011;65274;44.982;20.060;2023-03-01T02:29:18;97.30;;;37.83;;
76439;SDS011;65274;44.982;20.060;2023-03-01T02:31:44;99.18;;;37.85;;
76439;SDS011;65274;44.982;20.060;2023-03-01T02:34:20;94.72;;;37.72;;
76439;SDS011;65274;44.982;20.060;2023-03-01T02:36:48;87.57;;;35.63;;
76439;SDS011;65274;44.982;20.060;2023-03-01T02:39:16;99.20;;;39.20;;
76439;SDS011;65274;44.982;20.060;2023-03-01T02:41:49;123.97;;;60.08;;
76439;SDS011;65274;44.982;20.060;2023-03-01T02:44:16;117.18;;;51.35;;
76439;SDS011;65274;44.982;20.060;2023-03-01T02:46:43;200.75;;;102.57;;
76439;SDS011;65274;44.982;20.060;2023-03-01T02:49:29;125.72;;;56.63;;
76439;SDS011;65274;44.982;20.060;2023-03-01T02:54:29;144.35;;;55.90;;
76439;SDS011;65274;44.982;20.060;2023-03-01T02:56:57;107.65;;;44.00;;
76439;SDS011;65274;44.982;20.060;2023-03-01T02:59:24;127.97;;;60.88;;
76439;SDS011;65274;44.982;20.060;2023-03-01T03:01:52;102.85;;;43.95;;
76439;SDS011;65274;44.982;20.060;2023-03-01T03:04:18;98.00;;;41.33;;
76439;SDS011;65274;44.982;20.060;2023-03-01T03:06:46;102.47;;;42.22;;
76439;SDS011;65274;44.982;20.060;2023-03-01T03:09:13;105.80;;;42.13;;
76439;SDS011;65274;44.982;20.060;2023-03-01T03:11:39;95.10;;;39.25;;
76439;SDS011;65274;44.982;20.060;2023-03-01T03:14:06;89.93;;;39.88;;
76439;SDS011;65274;44.982;20.060;2023-03-01T03:16:41;93.32;;;39.15;;
76439;SDS011;65274;44.982;20.060;2023-03-01T03:19:07;97.55;;;39.00;;
76439;SDS011;65274;44.982;20.060;2023-03-01T03:21:33;101.75;;;40.85;;
76439;SDS011;65274;44.982;20.060;2023-03-01T03:23:59;98.53;;;39.05;;
76439;SDS011;65274;44.982;20.060;2023-03-01T03:26:25;95.78;;;41.72;;
76439;SDS011;65274;44.982;20.060;2023-03-01T03:28:51;87.30;;;39.33;;
76439;SDS011;65274;44.982;20.060;2023-03-01T03:31:17;91.32;;;38.33;;
76439;SDS011;65274;44.982;20.060;2023-03-01T03:33:43;94.43;;;40.05;;
76439;SDS011;65274;44.982;20.060;2023-03-01T03:36:09;85.35;;;39.58;;
76439;SDS011;65274;44.982;20.060;2023-03-01T03:38:42;94.45;;;39.17;;
76439;SDS011;65274;44.982;20.060;2023-03-01T03:41:09;93.70;;;40.20;;
76439;SDS011;65274;44.982;20.060;2023-03-01T03:43:36;90.95;;;37.83;;
76439;SDS011;65274;44.982;20.060;2023-03-01T03:46:02;87.93;;;39.30;;
76439;SDS011;65274;44.982;20.060;2023-03-01T03:48:35;83.30;;;37.05;;
76439;SDS011;65274;44.982;20.060;2023-03-01T03:51:01;77.75;;;36.78;;
76439;SDS011;65274;44.982;20.060;2023-03-01T03:53:30;85.82;;;37.80;;
76439;SDS011;65274;44.982;20.060;2023-03-01T03:55:57;77.15;;;36.70;;
76439;SDS011;65274;44.982;20.060;2023-03-01T03:58:23;86.20;;;36.95;;
76439;SDS011;65274;44.982;20.060;2023-03-01T04:00:54;79.40;;;37.53;;
76439;SDS011;65274;44.982;20.060;2023-03-01T04:03:21;89.75;;;40.67;;
76439;SDS011;65274;44.982;20.060;2023-03-01T04:05:47;74.38;;;35.25;;
76439;SDS011;65274;44.982;20.060;2023-03-01T04:08:15;88.82;;;39.38;;
76439;SDS011;65274;44.982;20.060;2023-03-01T04:10:45;80.68;;;37.65;;
76439;SDS011;65274;44.982;20.060;2023-03-01T04:13:13;82.80;;;35.95;;
76439;SDS011;65274;44.982;20.060;2023-03-01T04:15:40;84.55;;;37.47;;
76439;SDS011;65274;44.982;20.060;2023-03-01T04:18:08;84.03;;;36.97;;
76439;SDS011;65274;44.982;20.060;2023-03-01T04:20:34;84.18;;;38.70;;
76439;SDS011;65274;44.982;20.060;2023-03-01T04:23:05;77.72;;;36.80;;
76439;SDS011;65274;44.982;20.060;2023-03-01T04:25:54;76.82;;;33.75;;
76439;SDS011;65274;44.982;20.060;2023-03-01T04:30:46;78.50;;;36.33;;
76439;SDS011;65274;44.982;20.060;2023-03-01T04:33:13;79.13;;;37.22;;
76439;SDS011;65274;44.982;20.060;2023-03-01T04:35:39;80.75;;;37.60;;
76439;SDS011;65274;44.982;20.060;2023-03-01T04:38:05;77.47;;;37.65;;
76439;SDS011;65274;44.982;20.060;2023-03-01T04:40:31;72.60;;;34.92;;
76439;SDS011;65274;44.982;20.060;2023-03-01T04:42:57;92.80;;;39.80;;
76439;SDS011;65274;44.982;20.060;2023-03-01T04:45:24;77.15;;;34.78;;
76439;SDS011;65274;44.982;20.060;2023-03-01T04:47:50;76.32;;;35.95;;
76439;SDS011;65274;44.982;20.060;2023-03-01T04:50:17;81.20;;;37.25;;
76439;SDS011;65274;44.982;20.060;2023-03-01T04:52:45;87.00;;;38.08;;
76439;SDS011;65274;44.982;20.060;2023-03-01T04:55:12;86.90;;;39.03;;
76439;SDS011;65274;44.982;20.060;2023-03-01T04:57:38;92.25;;;41.63;;
76439;SDS011;65274;44.982;20.060;2023-03-01T05:00:07;88.57;;;38.97;;
76439;SDS011;65274;44.982;20.060;2023-03-01T05:02:58;89.85;;;40.75;;
76439;SDS011;65274;44.982;20.060;2023-03-01T05:05:26;91.18;;;41.38;;
76439;SDS011;65274;44.982;20.060;2023-03-01T05:07:53;100.27;;;40.97;;
76439;SDS011;65274;44.982;20.060;2023-03-01T05:10:19;86.97;;;40.20;;
76439;SDS011;65274;44.982;20.060;2023-03-01T05:12:45;90.75;;;38.50;;
76439;SDS011;65274;44.982;20.060;2023-03-01T05:15:11;86.32;;;36.33;;
76439;SDS011;65274;44.982;20.060;2023-03-01T05:17:37;90.18;;;41.20;;
76439;SDS011;65274;44.982;20.060;2023-03-01T05:20:04;82.97;;;37.05;;
76439;SDS011;65274;44.982;20.060;2023-03-01T05:22:36;99.57;;;42.58;;
76439;SDS011;65274;44.982;20.060;2023-03-01T05:25:03;99.80;;;42.00;;
76439;SDS011;65274;44.982;20.060;2023-03-01T05:27:29;100.70;;;40.47;;
76439;SDS011;65274;44.982;20.060;2023-03-01T05:29:55;114.70;;;46.13;;
76439;SDS011;65274;44.982;20.060;2023-03-01T05:32:21;97.25;;;43.80;;
76439;SDS011;65274;44.982;20.060;2023-03-01T05:34:47;106.13;;;41.67;;
76439;SDS011;65274;44.982;20.060;2023-03-01T05:37:14;90.97;;;42.22;;
76439;SDS011;65274;44.982;20.060;2023-03-01T05:39:40;92.32;;;42.38;;
76439;SDS011;65274;44.982;20.060;2023-03-01T05:42:09;90.47;;;41.42;;
76439;SDS011;65274;44.982;20.060;2023-03-01T05:44:35;86.00;;;40.10;;
76439;SDS011;65274;44.982;20.060;2023-03-01T05:47:02;81.68;;;37.17;;
76439;SDS011;65274;44.982;20.060;2023-03-01T05:49:28;86.53;;;38.28;;
76439;SDS011;65274;44.982;20.060;2023-03-01T05:51:55;80.78;;;36.05;;
76439;SDS011;65274;44.982;20.060;2023-03-01T05:54:21;77.93;;;36.00;;
76439;SDS011;65274;44.982;20.060;2023-03-01T05:56:47;92.10;;;39.10;;
76439;SDS011;65274;44.982;20.060;2023-03-01T05:59:13;95.72;;;44.13;;
76439;SDS011;65274;44.982;20.060;2023-03-01T06:01:41;110.25;;;50.35;;
76439;SDS011;65274;44.982;20.060;2023-03-01T06:04:07;98.22;;;45.80;;
76439;SDS011;65274;44.982;20.060;2023-03-01T06:06:34;100.30;;;43.55;;
76439;SDS011;65274;44.982;20.060;2023-03-01T06:09:02;92.55;;;45.67;;
76439;SDS011;65274;44.982;20.060;2023-03-01T06:11:28;93.82;;;40.17;;
76439;SDS011;65274;44.982;20.060;2023-03-01T06:13:54;82.55;;;38.38;;
76439;SDS011;65274;44.982;20.060;2023-03-01T06:16:20;76.88;;;37.20;;
76439;SDS011;65274;44.982;20.060;2023-03-01T06:18:46;77.07;;;36.30;;
76439;SDS011;65274;44.982;20.060;2023-03-01T06:21:12;81.28;;;38.25;;
76439;SDS011;65274;44.982;20.060;2023-03-01T06:23:38;100.72;;;48.38;;
76439;SDS011;65274;44.982;20.060;2023-03-01T06:26:05;112.00;;;61.05;;
76439;SDS011;65274;44.982;20.060;2023-03-01T06:28:32;90.53;;;46.95;;
76439;SDS011;65274;44.982;20.060;2023-03-01T06:30:58;108.80;;;54.42;;
76439;SDS011;65274;44.982;20.060;2023-03-01T06:33:24;108.53;;;55.38;;
76439;SDS011;65274;44.982;20.060;2023-03-01T06:35:50;85.72;;;45.85;;
76439;SDS011;65274;44.982;20.060;2023-03-01T06:38:17;79.10;;;40.50;;
76439;SDS011;65274;44.982;20.060;2023-03-01T06:40:44;87.57;;;43.08;;
76439;SDS011;65274;44.982;20.060;2023-03-01T06:43:10;82.25;;;41.67;;
76439;SDS011;65274;44.982;20.060;2023-03-01T06:45:36;91.65;;;51.20;;
76439;SDS011;65274;44.982;20.060;2023-03-01T06:48:03;82.13;;;42.17;;
76439;SDS011;65274;44.982;20.060;2023-03-01T06:50:29;96.55;;;47.15;;
76439;SDS011;65274;44.982;20.060;2023-03-01T06:52:56;84.57;;;40.85;;
76439;SDS011;65274;44.982;20.060;2023-03-01T06:55:22;77.07;;;37.05;;
76439;SDS011;65274;44.982;20.060;2023-03-01T06:57:48;73.88;;;37.47;;
76439;SDS011;65274;44.982;20.060;2023-03-01T07:00:14;95.88;;;52.78;;
76439;SDS011;65274;44.982;20.060;2023-03-01T07:02:40;154.27;;;85.30;;
76439;SDS011;65274;44.982;20.060;2023-03-01T07:05:07;139.27;;;73.82;;
76439;SDS011;65274;44.982;20.060;2023-03-01T07:07:33;126.55;;;71.20;;
76439;SDS011;65274;44.982;20.060;2023-03-01T07:09:59;110.15;;;63.78;;
76439;SDS011;65274;44.982;20.060;2023-03-01T07:12:25;86.60;;;46.03;;
76439;SDS011;65274;44.982;20.060;2023-03-01T07:14:51;80.97;;;44.90;;
76439;SDS011;65274;44.982;20.060;2023-03-01T07:17:17;63.75;;;34.25;;
76439;SDS011;65274;44.982;20.060;2023-03-01T07:19:43;66.85;;;35.78;;
76439;SDS011;65274;44.982;20.060;2023-03-01T07:22:10;62.63;;;35.13;;
76439;SDS011;65274;44.982;20.060;2023-03-01T07:24:36;72.82;;;42.10;;
76439;SDS011;65274;44.982;20.060;2023-03-01T07:27:02;63.22;;;33.60;;
76439;SDS011;65274;44.982;20.060;2023-03-01T07:29:28;63.33;;;32.90;;
76439;SDS011;65274;44.982;20.060;2023-03-01T07:31:54;58.47;;;30.33;;
76439;SDS011;65274;44.982;20.060;2023-03-01T07:34:20;59.25;;;30.10;;
76439;SDS011;65274;44.982;20.060;2023-03-01T07:36:46;53.22;;;29.02;;
76439;SDS011;65274;44.982;20.060;2023-03-01T07:39:12;56.25;;;30.90;;
76439;SDS011;65274;44.982;20.060;2023-03-01T07:41:38;50.88;;;26.85;;
76439;SDS011;65274;44.982;20.060;2023-03-01T07:44:05;50.70;;;26.15;;
76439;SDS011;65274;44.982;20.060;2023-03-01T07:46:31;50.53;;;26.17;;
76439;SDS011;65274;44.982;20.060;2023-03-01T07:48:57;95.75;;;49.67;;
76439;SDS011;65274;44.982;20.060;2023-03-01T07:51:23;63.20;;;35.33;;
76439;SDS011;65274;44.982;20.060;2023-03-01T07:53:49;113.22;;;73.18;;
76439;SDS011;65274;44.982;20.060;2023-03-01T07:56:15;262.75;;;151.57;;
76439;SDS011;65274;44.982;20.060;2023-03-01T07:58:43;223.93;;;125.90;;
76439;SDS011;65274;44.982;20.060;2023-03-01T08:01:11;536.88;;;319.75;;
76439;SDS011;65274;44.982;20.060;2023-03-01T08:03:37;805.50;;;465.10;;
76439;SDS011;65274;44.982;20.060;2023-03-01T08:06:04;1532.15;;;701.53;;
76439;SDS011;65274;44.982;20.060;2023-03-01T08:08:31;1999.90;;;895.53;;
76439;SDS011;65274;44.982;20.060;2023-03-01T08:11:00;1970.10;;;805.30;;
76439;SDS011;65274;44.982;20.060;2023-03-01T08:13:26;1990.85;;;799.35;;
76439;SDS011;65274;44.982;20.060;2023-03-01T08:15:53;1817.63;;;779.65;;
76439;SDS011;65274;44.982;20.060;2023-03-01T08:18:19;1045.82;;;574.80;;
76439;SDS011;65274;44.982;20.060;2023-03-01T08:20:46;491.30;;;262.02;;
76439;SDS011;65274;44.982;20.060;2023-03-01T08:23:12;243.73;;;125.15;;
76439;SDS011;65274;44.982;20.060;2023-03-01T08:25:38;233.05;;;129.40;;
76439;SDS011;65274;44.982;20.060;2023-03-01T08:28:04;347.65;;;208.75;;
76439;SDS011;65274;44.982;20.060;2023-03-01T08:30:31;306.98;;;177.48;;
76439;SDS011;65274;44.982;20.060;2023-03-01T08:32:57;114.47;;;64.75;;
76439;SDS011;65274;44.982;20.060;2023-03-01T08:35:23;155.60;;;93.85;;
76439;SDS011;65274;44.982;20.060;2023-03-01T08:37:49;62.80;;;40.40;;
76439;SDS011;65274;44.982;20.060;2023-03-01T08:40:15;64.93;;;46.35;;
76439;SDS011;65274;44.982;20.060;2023-03-01T08:42:41;42.92;;;25.80;;
76439;SDS011;65274;44.982;20.060;2023-03-01T08:45:09;40.83;;;24.25;;
76439;SDS011;65274;44.982;20.060;2023-03-01T08:47:35;43.25;;;24.23;;
76439;SDS011;65274;44.982;20.060;2023-03-01T08:50:01;44.90;;;27.25;;
76439;SDS011;65274;44.982;20.060;2023-03-01T08:52:27;47.85;;;25.55;;
76439;SDS011;65274;44.982;20.060;2023-03-01T08:54:55;47.08;;;24.52;;
76439;SDS011;65274;44.982;20.060;2023-03-01T08:57:21;43.63;;;26.33;;
76439;SDS011;65274;44.982;20.060;2023-03-01T08:59:47;43.65;;;24.13;;
76439;SDS011;65274;44.982;20.060;2023-03-01T09:02:15;42.42;;;23.77;;
76439;SDS011;65274;44.982;20.060;2023-03-01T09:04:42;45.45;;;29.00;;
76439;SDS011;65274;44.982;20.060;2023-03-01T09:07:09;234.40;;;125.10;;
76439;SDS011;65274;44.982;20.060;2023-03-01T09:09:35;44.38;;;24.52;;
76439;SDS011;65274;44.982;20.060;2023-03-01T09:12:02;77.10;;;45.50;;
76439;SDS011;65274;44.982;20.060;2023-03-01T09:14:28;49.72;;;28.48;;
76439;SDS011;65274;44.982;20.060;2023-03-01T09:16:54;86.95;;;49.25;;
76439;SDS011;65274;44.982;20.060;2023-03-01T09:19:20;44.25;;;25.65;;
76439;SDS011;65274;44.982;20.060;2023-03-01T09:21:46;88.97;;;54.22;;
76439;SDS011;65274;44.982;20.060;2023-03-01T09:24:23;124.93;;;75.25;;
76439;SDS011;65274;44.982;20.060;2023-03-01T09:26:50;44.85;;;28.27;;
76439;SDS011;65274;44.982;20.060;2023-03-01T09:29:18;42.10;;;22.55;;
76439;SDS011;65274;44.982;20.060;2023-03-01T09:31:44;55.65;;;34.08;;
76439;SDS011;65274;44.982;20.060;2023-03-01T09:34:10;38.22;;;25.55;;
76439;SDS011;65274;44.982;20.060;2023-03-01T09:36:36;31.60;;;20.40;;
76439;SDS011;65274;44.982;20.060;2023-03-01T09:39:02;39.50;;;23.80;;
76439;SDS011;65274;44.982;20.060;2023-03-01T09:47:02;37.03;;;24.10;;
76439;SDS011;65274;44.982;20.060;2023-03-01T09:49:29;33.10;;;19.75;;
76439;SDS011;65274;44.982;20.060;2023-03-01T09:52:01;42.00;;;26.00;;
76439;SDS011;65274;44.982;20.060;2023-03-01T09:54:29;35.85;;;21.73;;
76439;SDS011;65274;44.982;20.060;2023-03-01T09:57:06;37.70;;;24.60;;
76439;SDS011;65274;44.982;20.060;2023-03-01T10:09:47;32.90;;;19.73;;
76439;SDS011;65274;44.982;20.060;2023-03-01T10:12:15;31.25;;;21.83;;
76439;SDS011;65274;44.982;20.060;2023-03-01T10:14:51;32.90;;;20.70;;
76439;SDS011;65274;44.982;20.060;2023-03-01T10:19:52;29.02;;;18.25;;
76439;SDS011;65274;44.982;20.060;2023-03-01T10:22:19;27.05;;;15.82;;
76439;SDS011;65274;44.982;20.060;2023-03-01T10:24:49;27.88;;;16.05;;
76439;SDS011;65274;44.982;20.060;2023-03-01T10:27:22;29.50;;;15.35;;
76439;SDS011;65274;44.982;20.060;2023-03-01T10:29:53;24.33;;;13.38;;
76439;SDS011;65274;44.982;20.060;2023-03-01T10:32:20;17.67;;;11.90;;
76439;SDS011;65274;44.982;20.060;2023-03-01T10:34:47;18.70;;;10.45;;
76439;SDS011;65274;44.982;20.060;2023-03-01T10:37:14;16.92;;;10.60;;
76439;SDS011;65274;44.982;20.060;2023-03-01T10:42:26;14.45;;;8.73;;
76439;SDS011;65274;44.982;20.060;2023-03-01T10:44:53;10.88;;;6.70;;
76439;SDS011;65274;44.982;20.060;2023-03-01T10:47:20;13.82;;;7.47;;
76439;SDS011;65274;44.982;20.060;2023-03-01T10:49:54;11.75;;;7.47;;
76439;SDS011;65274;44.982;20.060;2023-03-01T10:52:22;7.82;;;5.63;;
76439;SDS011;65274;44.982;20.060;2023-03-01T10:54:53;8.23;;;4.80;;
76439;SDS011;65274;44.982;20.060;2023-03-01T10:57:33;9.30;;;6.57;;
76439;SDS011;65274;44.982;20.060;2023-03-01T11:02:37;5.75;;;4.00;;
76439;SDS011;65274;44.982;20.060;2023-03-01T11:07:48;7.50;;;4.53;;
76439;SDS011;65274;44.982;20.060;2023-03-01T11:10:22;6.97;;;4.72;;
76439;SDS011;65274;44.982;20.060;2023-03-01T11:12:49;9.52;;;6.72;;
76439;SDS011;65274;44.982;20.060;2023-03-01T11:15:26;10.20;;;5.85;;
76439;SDS011;65274;44.982;20.060;2023-03-01T11:17:53;11.05;;;6.10;;
76439;SDS011;65274;44.982;20.060;2023-03-01T11:20:24;7.57;;;5.10;;
76439;SDS011;65274;44.982;20.060;2023-03-01T11:22:54;11.75;;;6.20;;
76439;SDS011;65274;44.982;20.060;2023-03-01T11:25:23;7.57;;;6.25;;
76439;SDS011;65274;44.982;20.060;2023-03-01T11:27:50;9.20;;;6.35;;
76439;SDS011;65274;44.982;20.060;2023-03-01T11:35:35;14.68;;;7.00;;
76439;SDS011;65274;44.982;20.060;2023-03-01T11:40:37;19.60;;;13.25;;
76439;SDS011;65274;44.982;20.060;2023-03-01T11:43:19;24.70;;;8.07;;
76439;SDS011;65274;44.982;20.060;2023-03-01T11:46:13;28.35;;;14.38;;
76439;SDS011;65274;44.982;20.060;2023-03-01T11:48:47;25.48;;;14.40;;
76439;SDS011;65274;44.982;20.060;2023-03-01T11:52:02;16.50;;;8.77;;
76439;SDS011;65274;44.982;20.060;2023-03-01T11:56:31;23.13;;;14.25;;
76439;SDS011;65274;44.982;20.060;2023-03-01T12:01:52;15.50;;;9.23;;
76439;SDS011;65274;44.982;20.060;2023-03-01T12:12:48;13.18;;;6.85;;
76439;SDS011;65274;44.982;20.060;2023-03-01T12:18:20;10.50;;;6.40;;
76439;SDS011;65274;44.982;20.060;2023-03-01T12:31:16;8.32;;;5.15;;
76439;SDS011;65274;44.982;20.060;2023-03-01T12:49:12;7.13;;;5.25;;
76439;SDS011;65274;44.982;20.060;2023-03-01T12:51:40;10.40;;;6.13;;
76439;SDS011;65274;44.982;20.060;2023-03-01T12:54:15;20.02;;;10.98;;
76439;SDS011;65274;44.982;20.060;2023-03-01T12:56:41;9.77;;;6.90;;
76439;SDS011;65274;44.982;20.060;2023-03-01T12:59:20;7.55;;;5.63;;
76439;SDS011;65274;44.982;20.060;2023-03-01T13:09:33;11.68;;;7.07;;
76439;SDS011;65274;44.982;20.060;2023-03-01T13:12:00;11.20;;;7.95;;
76439;SDS011;65274;44.982;20.060;2023-03-01T13:16:52;12.38;;;6.47;;
76439;SDS011;65274;44.982;20.060;2023-03-01T13:19:20;11.60;;;5.75;;
76439;SDS011;65274;44.982;20.060;2023-03-01T13:21:48;10.40;;;7.55;;
76439;SDS011;65274;44.982;20.060;2023-03-01T13:24:24;14.23;;;8.48;;
76439;SDS011;65274;44.982;20.060;2023-03-01T13:27:24;14.15;;;8.52;;
76439;SDS011;65274;44.982;20.060;2023-03-01T13:29:44;10.70;;;5.65;;
76439;SDS011;65274;44.982;20.060;2023-03-01T13:34:53;13.00;;;7.55;;
76439;SDS011;65274;44.982;20.060;2023-03-01T13:37:21;14.32;;;8.73;;
76439;SDS011;65274;44.982;20.060;2023-03-01T13:39:47;13.88;;;8.18;;
76439;SDS011;65274;44.982;20.060;2023-03-01T13:44:54;12.95;;;9.00;;
76439;SDS011;65274;44.982;20.060;2023-03-01T13:47:21;17.52;;;9.07;;
76439;SDS011;65274;44.982;20.060;2023-03-01T13:54:59;22.67;;;12.50;;
76439;SDS011;65274;44.982;20.060;2023-03-01T13:57:29;66.30;;;36.80;;
76439;SDS011;65274;44.982;20.060;2023-03-01T13:59:56;126.63;;;68.32;;
76439;SDS011;65274;44.982;20.060;2023-03-01T14:02:23;224.38;;;112.18;;
76439;SDS011;65274;44.982;20.060;2023-03-01T14:04:55;55.92;;;32.92;;
76439;SDS011;65274;44.982;20.060;2023-03-01T14:07:22;54.97;;;31.67;;
76439;SDS011;65274;44.982;20.060;2023-03-01T14:09:53;41.60;;;26.35;;
76439;SDS011;65274;44.982;20.060;2023-03-01T14:19:47;24.63;;;17.20;;
76439;SDS011;65274;44.982;20.060;2023-03-01T14:22:24;27.23;;;17.52;;
76439;SDS011;65274;44.982;20.060;2023-03-01T14:24:54;26.38;;;18.02;;
76439;SDS011;65274;44.982;20.060;2023-03-01T14:27:20;29.67;;;19.05;;
76439;SDS011;65274;44.982;20.060;2023-03-01T14:29:54;45.53;;;26.60;;
76439;SDS011;65274;44.982;20.060;2023-03-01T14:32:21;48.45;;;31.38;;
76439;SDS011;65274;44.982;20.060;2023-03-01T14:34:48;51.72;;;32.08;;
76439;SDS011;65274;44.982;20.060;2023-03-01T14:37:18;31.77;;;21.70;;
76439;SDS011;65274;44.982;20.060;2023-03-01T14:39:46;32.95;;;23.15;;
76439;SDS011;65274;44.982;20.060;2023-03-01T14:42:13;27.60;;;18.52;;
76439;SDS011;65274;44.982;20.060;2023-03-01T14:44:41;28.02;;;17.95;;
76439;SDS011;65274;44.982;20.060;2023-03-01T14:49:34;32.58;;;19.45;;
76439;SDS011;65274;44.982;20.060;2023-03-01T14:52:05;32.28;;;20.77;;
76439;SDS011;65274;44.982;20.060;2023-03-01T14:54:36;44.40;;;30.25;;
76439;SDS011;65274;44.982;20.060;2023-03-01T14:57:03;35.05;;;23.40;;
76439;SDS011;65274;44.982;20.060;2023-03-01T14:59:29;27.42;;;19.05;;
76439;SDS011;65274;44.982;20.060;2023-03-01T15:01:56;28.20;;;18.55;;
76439;SDS011;65274;44.982;20.060;2023-03-01T15:04:23;24.77;;;16.17;;
76439;SDS011;65274;44.982;20.060;2023-03-01T15:06:51;29.70;;;20.67;;
76439;SDS011;65274;44.982;20.060;2023-03-01T15:09:17;28.48;;;18.98;;
76439;SDS011;65274;44.982;20.060;2023-03-01T15:11:43;53.42;;;31.55;;
76439;SDS011;65274;44.982;20.060;2023-03-01T15:14:26;62.70;;;37.13;;
76439;SDS011;65274;44.982;20.060;2023-03-01T15:16:54;43.53;;;23.85;;
76439;SDS011;65274;44.982;20.060;2023-03-01T15:19:20;32.20;;;20.35;;
76439;SDS011;65274;44.982;20.060;2023-03-01T15:21:49;27.90;;;17.10;;
76439;SDS011;65274;44.982;20.060;2023-03-01T15:26:58;61.45;;;39.08;;
76439;SDS011;65274;44.982;20.060;2023-03-01T15:29:27;28.83;;;19.08;;
76439;SDS011;65274;44.982;20.060;2023-03-01T15:32:02;34.22;;;20.67;;
76439;SDS011;65274;44.982;20.060;2023-03-01T15:34:35;24.55;;;16.48;;
76439;SDS011;65274;44.982;20.060;2023-03-01T15:37:05;23.75;;;15.95;;
76439;SDS011;65274;44.982;20.060;2023-03-01T15:39:37;22.25;;;14.80;;
76439;SDS011;65274;44.982;20.060;2023-03-01T15:42:06;27.98;;;15.38;;
76439;SDS011;65274;44.982;20.060;2023-03-01T15:44:36;18.95;;;11.98;;
76439;SDS011;65274;44.982;20.060;2023-03-01T15:47:05;20.58;;;10.73;;
76439;SDS011;65274;44.982;20.060;2023-03-01T15:49:41;19.48;;;11.13;;
76439;SDS011;65274;44.982;20.060;2023-03-01T15:52:18;18.10;;;10.77;;
76439;SDS011;65274;44.982;20.060;2023-03-01T15:54:45;16.08;;;9.70;;
76439;SDS011;65274;44.982;20.060;2023-03-01T15:57:14;18.67;;;10.70;;
76439;SDS011;65274;44.982;20.060;2023-03-01T15:59:40;23.42;;;11.95;;
76439;SDS011;65274;44.982;20.060;2023-03-01T16:02:09;26.08;;;13.18;;
76439;SDS011;65274;44.982;20.060;2023-03-01T16:04:37;22.10;;;11.25;;
76439;SDS011;65274;44.982;20.060;2023-03-01T16:07:04;14.95;;;9.50;;
76439;SDS011;65274;44.982;20.060;2023-03-01T16:09:30;20.50;;;11.50;;
76439;SDS011;65274;44.982;20.060;2023-03-01T16:11:57;15.73;;;10.07;;
76439;SDS011;65274;44.982;20.060;2023-03-01T16:14:23;20.17;;;10.68;;
76439;SDS011;65274;44.982;20.060;2023-03-01T16:16:49;19.27;;;10.75;;
76439;SDS011;65274;44.982;20.060;2023-03-01T16:19:15;13.30;;;9.05;;